createdAt,value
2023-05-03T00:01:46.504Z,13.72
2023-05-03T00:04:14.878Z,13.74
2023-05-03T00:06:43.847Z,13.88
2023-05-03T00:09:10.770Z,13.78
2023-05-03T00:11:37.764Z,13.80
2023-05-03T00:14:04.528Z,13.80
2023-05-03T00:16:31.246Z,13.67
2023-05-03T00:18:58.079Z,13.57
2023-05-03T00:21:24.894Z,13.59
2023-05-03T00:23:51.637Z,13.62
2023-05-03T00:26:18.398Z,13.66
2023-05-03T00:28:45.548Z,13.68
2023-05-03T00:31:12.245Z,13.65
2023-05-03T00:33:39.880Z,13.66
2023-05-03T00:36:10.781Z,13.59
2023-05-03T00:38:38.065Z,13.59
2023-05-03T00:41:05.041Z,13.53
2023-05-03T00:43:34.374Z,13.47
2023-05-03T00:46:15.227Z,13.36
2023-05-03T00:48:43.966Z,13.33
2023-05-03T00:51:14.332Z,13.29
2023-05-03T00:53:42.616Z,13.37
2023-05-03T00:56:09.393Z,13.40
2023-05-03T00:58:40.508Z,13.45
2023-05-03T01:01:08.653Z,13.39
2023-05-03T01:03:41.703Z,13.28
2023-05-03T01:06:21.779Z,13.30
2023-05-03T01:09:00.358Z,13.28
2023-05-03T01:11:36.808Z,13.26
2023-05-03T01:14:20.731Z,13.31
2023-05-03T01:16:51.773Z,13.31
2023-05-03T01:19:40.271Z,13.28
2023-05-03T01:22:17.789Z,13.22
2023-05-03T01:24:55.661Z,13.28
2023-05-03T01:27:23.912Z,13.24
2023-05-03T01:29:51.406Z,13.27
2023-05-03T01:32:26.796Z,13.12
2023-05-03T01:35:15.898Z,13.12
2023-05-03T01:37:43.169Z,13.09
2023-05-03T01:40:11.749Z,13.02
2023-05-03T01:42:39.280Z,13.04
2023-05-03T01:45:07.257Z,12.98
2023-05-03T01:47:34.047Z,12.96
2023-05-03T01:50:01.058Z,12.87
2023-05-03T01:52:28.061Z,12.84
2023-05-03T01:54:54.770Z,12.78
2023-05-03T01:57:21.377Z,12.80
2023-05-03T01:59:48.159Z,12.74
2023-05-03T02:02:15.146Z,12.63
2023-05-03T02:04:41.951Z,12.71
2023-05-03T02:07:09.287Z,12.66
2023-05-03T02:09:36.206Z,12.65
2023-05-03T02:12:02.916Z,12.62
2023-05-03T02:14:29.650Z,12.56
2023-05-03T02:16:56.333Z,12.57
2023-05-03T02:19:23.056Z,12.45
2023-05-03T02:21:49.714Z,12.47
2023-05-03T02:24:16.613Z,12.50
2023-05-03T02:26:43.255Z,12.38
2023-05-03T02:29:10.365Z,12.32
2023-05-03T02:31:37.100Z,12.37
2023-05-03T02:34:04.417Z,12.35
2023-05-03T02:36:31.125Z,12.30
2023-05-03T02:39:00.724Z,12.33
2023-05-03T02:41:28.612Z,12.31
2023-05-03T02:43:55.260Z,12.25
2023-05-03T02:46:23.429Z,12.23
2023-05-03T02:48:50.193Z,12.24
2023-05-03T02:51:16.845Z,12.21
2023-05-03T02:53:43.558Z,12.20
2023-05-03T02:56:10.325Z,12.20
2023-05-03T02:58:37.050Z,12.12
2023-05-03T03:01:04.821Z,12.12
2023-05-03T03:03:31.655Z,12.18
2023-05-03T03:05:58.446Z,12.13
2023-05-03T03:08:25.314Z,12.05
2023-05-03T03:10:52.634Z,12.00
2023-05-03T03:13:19.436Z,11.97
2023-05-03T03:15:46.365Z,11.99
2023-05-03T03:18:13.201Z,11.97
2023-05-03T03:20:39.891Z,11.85
2023-05-03T03:23:07.169Z,11.89
2023-05-03T03:25:33.982Z,11.86
2023-05-03T03:28:00.769Z,11.86
2023-05-03T03:30:28.235Z,11.81
2023-05-03T03:33:11.521Z,11.82
2023-05-03T03:35:41.249Z,11.69
2023-05-03T03:38:08.699Z,11.68
2023-05-03T03:40:39.906Z,11.61
2023-05-03T03:43:06.634Z,11.66
2023-05-03T03:45:33.398Z,11.63
2023-05-03T03:48:00.715Z,11.65
2023-05-03T03:50:27.679Z,11.60
2023-05-03T03:52:54.301Z,11.69
2023-05-03T03:55:21.073Z,11.70
2023-05-03T03:57:49.656Z,11.67
2023-05-03T04:00:16.755Z,11.60
2023-05-03T04:02:49.665Z,11.62
2023-05-03T04:05:18.373Z,11.52
2023-05-03T04:07:46.095Z,11.51
2023-05-03T04:10:14.586Z,11.53
2023-05-03T04:12:41.524Z,11.56
2023-05-03T04:15:08.966Z,11.61
2023-05-03T04:17:37.458Z,11.61
2023-05-03T04:20:10.824Z,11.61
2023-05-03T04:22:40.389Z,11.61
2023-05-03T04:25:17.103Z,11.62
2023-05-03T04:27:48.752Z,11.58
2023-05-03T04:30:17.482Z,11.60
2023-05-03T04:32:48.121Z,11.56
2023-05-03T04:35:15.679Z,11.52
2023-05-03T04:37:46.762Z,11.68
2023-05-03T04:40:19.622Z,11.78
2023-05-03T04:42:52.027Z,11.80
2023-05-03T04:45:20.763Z,11.80
2023-05-03T04:47:48.220Z,11.89
2023-05-03T04:50:15.138Z,11.86
2023-05-03T04:52:44.645Z,11.90
2023-05-03T04:55:12.496Z,11.96
2023-05-03T04:57:39.130Z,12.04
2023-05-03T05:00:11.826Z,12.19
2023-05-03T05:02:43.715Z,12.30
2023-05-03T05:05:11.341Z,12.37
2023-05-03T05:07:38.100Z,12.55
2023-05-03T05:10:05.635Z,12.57
2023-05-03T05:12:32.633Z,12.81
2023-05-03T05:15:02.467Z,13.02
2023-05-03T05:17:29.307Z,13.24
2023-05-03T05:19:56.326Z,13.56
2023-05-03T05:22:22.933Z,13.92
2023-05-03T05:24:54.975Z,14.20
2023-05-03T05:27:23.790Z,14.49
2023-05-03T05:29:52.533Z,14.75
2023-05-03T05:32:20.042Z,15.16
2023-05-03T05:34:52.870Z,15.15
2023-05-03T05:37:25.042Z,15.49
2023-05-03T05:39:53.774Z,15.87
2023-05-03T05:42:22.598Z,16.17
2023-05-03T05:44:50.035Z,16.30
2023-05-03T05:47:16.951Z,16.61
2023-05-03T05:49:45.208Z,16.71
2023-05-03T05:52:12.420Z,16.93
2023-05-03T05:54:39.808Z,17.10
2023-05-03T05:57:06.860Z,17.22
2023-05-03T05:59:34.409Z,17.47
2023-05-03T06:02:01.195Z,17.52
2023-05-03T06:04:28.887Z,18.01
2023-05-03T06:06:56.767Z,18.18
2023-05-03T06:09:24.984Z,18.34
2023-05-03T06:11:55.377Z,18.55
2023-05-03T06:14:22.038Z,18.58
2023-05-03T06:16:50.744Z,18.65
2023-05-03T06:19:17.567Z,18.85
2023-05-03T06:21:44.225Z,18.98
2023-05-03T06:24:10.933Z,19.21
2023-05-03T06:26:38.583Z,19.53
2023-05-03T06:29:05.849Z,19.83
2023-05-03T06:31:32.531Z,20.14
2023-05-03T06:33:59.582Z,20.29
2023-05-03T06:36:27.652Z,20.09
2023-05-03T06:38:55.825Z,20.15
2023-05-03T06:41:22.444Z,20.60
2023-05-03T06:43:49.118Z,20.60
2023-05-03T06:46:18.262Z,20.42
2023-05-03T06:48:46.447Z,20.23
2023-05-03T06:51:13.157Z,20.32
2023-05-03T06:53:39.752Z,20.05
2023-05-03T06:56:06.769Z,20.25
2023-05-03T06:58:33.395Z,20.84
2023-05-03T07:01:00.065Z,21.18
2023-05-03T07:03:26.836Z,21.61
2023-05-03T07:05:53.629Z,20.86
2023-05-03T07:08:20.292Z,20.43
2023-05-03T07:10:46.899Z,20.80
2023-05-03T07:13:14.269Z,21.02
2023-05-03T07:15:41.108Z,21.24
2023-05-03T07:18:08.311Z,21.31
2023-05-03T07:20:34.988Z,21.48
2023-05-03T07:23:01.785Z,21.49
2023-05-03T07:25:28.539Z,21.60
2023-05-03T07:27:55.277Z,21.61
2023-05-03T07:30:22.305Z,21.47
2023-05-03T07:32:50.637Z,21.70
2023-05-03T07:35:17.314Z,21.72
2023-05-03T07:37:44.765Z,22.31
2023-05-03T07:40:12.291Z,22.54
2023-05-03T07:42:38.998Z,22.48
2023-05-03T07:45:06.435Z,22.75
2023-05-03T07:47:35.317Z,23.33
2023-05-03T07:50:02.288Z,23.16
2023-05-03T07:52:39.401Z,23.50
2023-05-03T07:55:07.221Z,23.98
2023-05-03T07:57:33.874Z,24.70
2023-05-03T08:00:00.905Z,24.32
2023-05-03T08:02:28.253Z,24.62
2023-05-03T08:04:55.272Z,24.23
2023-05-03T08:07:22.122Z,24.60
2023-05-03T08:09:49.400Z,24.02
2023-05-03T08:12:16.043Z,24.39
2023-05-03T08:14:42.868Z,24.47
2023-05-03T08:17:09.666Z,24.31
2023-05-03T08:19:36.582Z,24.88
2023-05-03T08:22:03.405Z,24.98
2023-05-03T08:24:30.305Z,25.55
2023-05-03T08:26:56.968Z,26.35
2023-05-03T08:29:24.083Z,27.48
2023-05-03T08:31:51.856Z,27.33
2023-05-03T08:34:18.683Z,26.92
2023-05-03T08:36:45.509Z,27.20
2023-05-03T08:39:12.145Z,29.13
2023-05-03T08:41:39.634Z,28.71
2023-05-03T08:44:08.380Z,29.43
2023-05-03T08:46:37.223Z,29.93
2023-05-03T08:49:06.673Z,30.36
2023-05-03T08:51:34.269Z,31.49
2023-05-03T08:54:01.086Z,32.03
2023-05-03T08:56:34.601Z,31.55
2023-05-03T08:59:07.452Z,32.23
2023-05-03T09:01:37.192Z,32.68
2023-05-03T09:04:04.641Z,32.85
2023-05-03T09:06:33.171Z,34.93
2023-05-03T09:09:00.851Z,34.87
2023-05-03T09:11:30.273Z,34.62
2023-05-03T09:14:12.222Z,34.75
2023-05-03T09:16:40.727Z,34.68
2023-05-03T09:19:11.518Z,34.62
2023-05-03T09:21:39.369Z,34.96
2023-05-03T09:24:21.080Z,35.36
2023-05-03T09:26:51.918Z,35.53
2023-05-03T09:29:34.510Z,35.57
2023-05-03T09:32:05.447Z,35.92
2023-05-03T09:34:33.382Z,35.16
2023-05-03T09:37:00.051Z,34.86
2023-05-03T09:39:27.514Z,34.65
2023-05-03T09:41:54.400Z,35.30
2023-05-03T09:44:41.270Z,36.48
2023-05-03T09:47:08.388Z,36.71
2023-05-03T09:49:39.376Z,36.51
2023-05-03T09:52:07.779Z,36.71
2023-05-03T09:54:38.125Z,36.28
2023-05-03T09:57:06.519Z,35.50
2023-05-03T09:59:38.779Z,35.76
2023-05-03T10:02:07.495Z,35.87
2023-05-03T10:04:47.526Z,36.24
2023-05-03T10:07:18.624Z,37.25
2023-05-03T10:09:47.847Z,38.06
2023-05-03T10:12:17.460Z,38.51
2023-05-03T10:14:48.680Z,38.10
2023-05-03T10:17:46.096Z,38.51
2023-05-03T10:20:27.173Z,38.11
2023-05-03T10:23:11.950Z,38.12
2023-05-03T10:25:41.051Z,37.23
2023-05-03T10:28:09.490Z,36.75
2023-05-03T10:30:36.258Z,38.04
2023-05-03T10:33:17.783Z,38.60
2023-05-03T10:35:54.404Z,39.10
2023-05-03T10:38:23.004Z,39.14
2023-05-03T10:40:50.585Z,37.92
2023-05-03T10:43:29.554Z,38.92
2023-05-03T10:45:57.376Z,38.86
2023-05-03T10:48:24.396Z,38.69
2023-05-03T10:50:52.625Z,39.93
2023-05-03T10:53:31.920Z,39.36
2023-05-03T10:56:10.140Z,38.27
2023-05-03T10:58:38.093Z,37.82
2023-05-03T11:01:06.824Z,38.39
2023-05-03T11:03:55.979Z,37.59
2023-05-03T11:06:37.134Z,37.88
2023-05-03T11:09:06.624Z,38.89
2023-05-03T11:11:35.181Z,39.14
2023-05-03T11:14:01.966Z,36.68
2023-05-03T11:16:32.297Z,36.93
2023-05-03T11:19:00.323Z,37.18
2023-05-03T11:21:27.649Z,37.23
2023-05-03T11:23:54.408Z,37.12
2023-05-03T11:26:25.911Z,37.10
2023-05-03T11:28:54.044Z,35.81
2023-05-03T11:31:21.621Z,35.30
2023-05-03T11:33:49.464Z,36.89
2023-05-03T11:36:16.222Z,38.62
2023-05-03T11:38:42.941Z,39.68
2023-05-03T11:41:19.027Z,38.94
2023-05-03T11:43:47.810Z,37.10
2023-05-03T11:46:26.492Z,36.96
2023-05-03T11:48:53.452Z,36.91
2023-05-03T11:51:23.870Z,37.20
2023-05-03T11:53:51.391Z,36.42
2023-05-03T11:56:20.296Z,36.51
2023-05-03T11:58:58.354Z,36.29
2023-05-03T12:01:27.143Z,37.42
2023-05-03T12:03:58.772Z,38.05
2023-05-03T12:06:32.195Z,37.48
2023-05-03T12:09:03.493Z,36.67
2023-05-03T12:11:32.911Z,34.81
2023-05-03T12:14:03.133Z,33.91
2023-05-03T12:16:50.989Z,32.27
2023-05-03T12:19:26.071Z,31.50
2023-05-03T12:22:04.490Z,30.93
2023-05-03T12:24:39.879Z,29.92
2023-05-03T12:27:08.624Z,29.25
2023-05-03T12:29:35.848Z,29.00
2023-05-03T12:32:03.721Z,28.27
2023-05-03T12:34:35.682Z,27.99
2023-05-03T12:37:05.614Z,28.01
2023-05-03T12:39:34.095Z,28.09
2023-05-03T12:44:35.039Z,27.37
2023-05-03T12:47:02.912Z,27.15
2023-05-03T12:49:30.290Z,27.32
2023-05-03T12:52:24.102Z,27.31
2023-05-03T12:55:02.709Z,27.42
2023-05-03T12:57:31.258Z,27.53
2023-05-03T13:00:03.344Z,27.66
2023-05-03T13:05:09.722Z,27.84
2023-05-03T13:07:42.921Z,27.05
2023-05-03T13:12:40.714Z,26.58
2023-05-03T13:15:08.284Z,25.89
2023-05-03T13:17:35.216Z,25.62
2023-05-03T13:20:01.942Z,26.01
2023-05-03T13:22:30.098Z,26.25
2023-05-03T13:24:56.778Z,26.69
2023-05-03T13:27:23.487Z,26.89
2023-05-03T13:29:50.217Z,26.32
2023-05-03T13:32:17.227Z,26.42
2023-05-03T13:34:44.293Z,26.15
2023-05-03T13:37:11.790Z,26.04
2023-05-03T13:39:38.650Z,25.44
2023-05-03T13:42:06.276Z,25.74
2023-05-03T13:44:32.977Z,25.89
2023-05-03T13:46:59.609Z,25.77
2023-05-03T13:49:26.346Z,26.31
2023-05-03T13:51:53.015Z,26.28
2023-05-03T13:54:20.193Z,26.16
2023-05-03T13:56:47.286Z,26.14
2023-05-03T13:59:14.112Z,26.06
2023-05-03T14:01:42.998Z,26.32
2023-05-03T14:04:10.223Z,26.14
2023-05-03T14:06:39.412Z,26.06
2023-05-03T14:09:07.842Z,26.30
2023-05-03T14:11:34.633Z,26.09
2023-05-03T14:14:01.699Z,26.36
2023-05-03T14:18:58.347Z,25.54
2023-05-03T14:21:25.178Z,25.55
2023-05-03T14:23:52.971Z,25.18
2023-05-03T14:26:20.484Z,25.41
2023-05-03T14:28:47.173Z,25.46
2023-05-03T14:31:13.875Z,25.82
2023-05-03T14:33:40.537Z,25.87
2023-05-03T14:36:08.719Z,25.95
2023-05-03T14:38:37.141Z,25.89
2023-05-03T14:41:04.086Z,25.95
2023-05-03T14:43:31.408Z,25.87
2023-05-03T14:45:58.000Z,25.85
2023-05-03T14:48:24.812Z,25.73
2023-05-03T14:50:51.612Z,25.83
2023-05-03T14:53:18.279Z,25.42
2023-05-03T14:55:46.039Z,25.05
2023-05-03T14:58:16.101Z,24.92
2023-05-03T15:00:43.370Z,24.93
2023-05-03T15:03:12.041Z,25.08
2023-05-03T15:05:45.355Z,24.50
2023-05-03T15:08:15.159Z,24.85
2023-05-03T15:10:44.256Z,24.98
2023-05-03T15:13:12.258Z,24.88
2023-05-03T15:15:40.509Z,24.96
2023-05-03T15:18:08.594Z,25.18
2023-05-03T15:20:35.984Z,25.01
2023-05-03T15:23:04.180Z,24.53
2023-05-03T15:25:31.485Z,25.15
2023-05-03T15:27:59.997Z,25.27
2023-05-03T15:30:28.846Z,25.40
2023-05-03T15:32:55.663Z,25.24
2023-05-03T15:35:22.472Z,24.63
2023-05-03T15:37:49.532Z,24.40
2023-05-03T15:40:16.675Z,24.52
2023-05-03T15:42:43.744Z,24.59
2023-05-03T15:45:10.803Z,24.46
2023-05-03T15:47:37.494Z,24.69
2023-05-03T15:50:06.377Z,24.73
2023-05-03T15:52:34.736Z,24.63
2023-05-03T15:55:01.461Z,24.53
2023-05-03T15:57:29.645Z,24.68
2023-05-03T15:59:57.063Z,24.81
2023-05-03T16:02:23.943Z,24.62
2023-05-03T16:04:50.930Z,24.42
2023-05-03T16:07:17.935Z,24.34
2023-05-03T16:09:44.755Z,24.35
2023-05-03T16:12:11.737Z,24.13
2023-05-03T16:14:38.422Z,24.14
2023-05-03T16:17:05.147Z,23.84
2023-05-03T16:19:32.117Z,24.13
2023-05-03T16:21:58.984Z,24.23
2023-05-03T16:24:25.866Z,24.28
2023-05-03T16:26:52.975Z,23.92
2023-05-03T16:29:19.990Z,24.10
2023-05-03T16:31:46.958Z,24.06
2023-05-03T16:34:14.217Z,23.74
2023-05-03T16:36:43.087Z,23.92
2023-05-03T16:39:11.669Z,23.88
2023-05-03T16:41:38.907Z,23.97
2023-05-03T16:44:07.129Z,23.77
2023-05-03T16:46:39.569Z,23.93
2023-05-03T16:49:06.388Z,23.58
2023-05-03T16:51:33.749Z,23.35
2023-05-03T16:54:03.789Z,23.28
2023-05-03T16:56:31.317Z,23.42
2023-05-03T16:58:59.200Z,23.06
2023-05-03T17:01:26.401Z,23.24
2023-05-03T17:03:53.501Z,23.46
2023-05-03T17:06:20.505Z,23.28
2023-05-03T17:08:47.269Z,23.23
2023-05-03T17:11:14.816Z,23.25
2023-05-03T17:13:42.037Z,23.30
2023-05-03T17:16:10.780Z,23.29
2023-05-03T17:18:38.796Z,23.39
2023-05-03T17:21:06.641Z,23.20
2023-05-03T17:23:35.923Z,22.97
2023-05-03T17:26:07.012Z,22.87
2023-05-03T17:28:33.967Z,22.73
2023-05-03T17:31:02.309Z,22.58
2023-05-03T17:33:29.221Z,22.51
2023-05-03T17:35:55.897Z,22.55
2023-05-03T17:38:23.478Z,22.57
2023-05-03T17:40:50.681Z,22.41
2023-05-03T17:43:17.798Z,22.42
2023-05-03T17:45:47.358Z,22.19
2023-05-03T17:48:14.520Z,22.28
2023-05-03T17:50:43.004Z,22.00
2023-05-03T17:53:09.790Z,22.08
2023-05-03T17:55:38.308Z,22.01
2023-05-03T17:58:06.177Z,21.98
2023-05-03T18:00:33.855Z,21.81
2023-05-03T18:03:01.286Z,21.48
2023-05-03T18:05:28.382Z,21.47
2023-05-03T18:07:55.093Z,21.63
2023-05-03T18:10:22.329Z,21.54
2023-05-03T18:12:49.280Z,21.38
2023-05-03T18:15:16.312Z,21.31
2023-05-03T18:17:43.532Z,21.40
2023-05-03T18:20:10.860Z,21.24
2023-05-03T18:22:37.853Z,21.35
2023-05-03T18:25:07.527Z,21.24
2023-05-03T18:27:37.277Z,21.25
2023-05-03T18:30:06.746Z,21.29
2023-05-03T18:32:34.805Z,21.12
2023-05-03T18:35:02.440Z,21.04
2023-05-03T18:37:29.711Z,20.95
2023-05-03T18:39:56.433Z,20.95
2023-05-03T18:42:23.170Z,20.61
2023-05-03T18:44:49.860Z,20.69
2023-05-03T18:47:20.640Z,20.61
2023-05-03T18:49:52.713Z,20.51
2023-05-03T18:52:20.455Z,20.40
2023-05-03T18:54:47.469Z,20.30
2023-05-03T18:57:14.199Z,20.14
2023-05-03T18:59:52.583Z,20.00
2023-05-03T19:02:25.330Z,19.99
2023-05-03T19:04:52.658Z,19.82
2023-05-03T19:07:19.510Z,19.92
2023-05-03T19:09:46.206Z,19.81
2023-05-03T19:12:13.506Z,19.84
2023-05-03T19:14:42.920Z,19.80
2023-05-03T19:17:09.836Z,19.75
2023-05-03T19:19:36.818Z,19.62
2023-05-03T19:22:03.714Z,19.62
2023-05-03T19:24:30.493Z,19.58
2023-05-03T19:26:57.298Z,19.60
2023-05-03T19:29:23.953Z,19.44
2023-05-03T19:31:50.694Z,19.43
2023-05-03T19:34:17.685Z,19.39
2023-05-03T19:36:44.276Z,19.29
2023-05-03T19:39:11.395Z,19.17
2023-05-03T19:41:38.732Z,19.18
2023-05-03T19:44:06.025Z,19.29
2023-05-03T19:46:33.778Z,19.21
2023-05-03T19:49:01.345Z,19.17
2023-05-03T19:51:28.184Z,19.20
2023-05-03T19:53:55.258Z,19.11
2023-05-03T19:56:22.170Z,19.12
2023-05-03T19:58:50.688Z,19.14
2023-05-03T20:01:17.672Z,19.17
2023-05-03T20:03:44.620Z,19.07
2023-05-03T20:06:11.436Z,19.00
2023-05-03T20:08:38.033Z,18.95
2023-05-03T20:11:04.747Z,18.83
2023-05-03T20:13:31.683Z,18.83
2023-05-03T20:15:58.391Z,18.69
2023-05-03T20:18:25.187Z,18.68
2023-05-03T20:20:51.784Z,18.76
2023-05-03T20:23:18.492Z,18.77
2023-05-03T20:25:45.147Z,18.65
2023-05-03T20:28:12.908Z,18.57
2023-05-03T20:30:39.568Z,18.58
2023-05-03T20:33:06.304Z,18.49
2023-05-03T20:35:32.984Z,18.67
2023-05-03T20:37:59.566Z,18.73
2023-05-03T20:40:26.248Z,18.60
2023-05-03T20:42:52.872Z,18.58
2023-05-03T20:45:19.585Z,18.37
2023-05-03T20:47:46.316Z,18.31
2023-05-03T20:50:13.029Z,18.18
2023-05-03T20:52:39.711Z,18.27
2023-05-03T20:55:07.199Z,18.28
2023-05-03T20:57:33.975Z,18.24
2023-05-03T21:00:02.257Z,18.31
2023-05-03T21:02:29.156Z,18.20
2023-05-03T21:04:55.855Z,18.24
2023-05-03T21:07:22.575Z,18.22
2023-05-03T21:09:49.303Z,18.22
2023-05-03T21:12:16.012Z,18.18
2023-05-03T21:14:42.669Z,18.20
2023-05-03T21:17:12.095Z,18.21
2023-05-03T21:19:39.611Z,18.24
2023-05-03T21:22:09.533Z,18.13
2023-05-03T21:24:36.351Z,18.06
2023-05-03T21:27:03.404Z,17.97
2023-05-03T21:29:30.006Z,18.01
2023-05-03T21:31:56.971Z,17.78
2023-05-03T21:34:23.666Z,17.69
2023-05-03T21:36:50.554Z,17.71
2023-05-03T21:39:17.272Z,17.62
2023-05-03T21:41:43.939Z,17.54
2023-05-03T21:44:10.631Z,17.62
2023-05-03T21:46:37.378Z,17.46
2023-05-03T21:49:04.016Z,17.33
2023-05-03T21:51:31.185Z,17.39
2023-05-03T21:53:57.855Z,17.42
2023-05-03T21:56:24.531Z,17.49
2023-05-03T21:58:51.247Z,17.39
2023-05-03T22:01:19.948Z,17.45
2023-05-03T22:03:48.611Z,17.50
2023-05-03T22:06:18.350Z,17.41
2023-05-03T22:08:45.049Z,17.47
2023-05-03T22:11:12.471Z,17.39
2023-05-03T22:13:49.622Z,17.30
2023-05-03T22:16:18.329Z,17.26
2023-05-03T22:18:45.065Z,17.24
2023-05-03T22:21:11.721Z,17.12
2023-05-03T22:23:38.479Z,17.14
2023-05-03T22:26:05.123Z,17.03
2023-05-03T22:28:31.792Z,17.13
2023-05-03T22:30:58.511Z,17.07
2023-05-03T22:33:25.331Z,17.04
2023-05-03T22:35:52.301Z,17.09
2023-05-03T22:38:20.040Z,16.98
2023-05-03T22:40:46.931Z,16.99
2023-05-03T22:43:13.601Z,17.03
2023-05-03T22:45:40.287Z,17.11
2023-05-03T22:48:07.065Z,16.94
2023-05-03T22:50:33.710Z,16.94
2023-05-03T22:53:00.400Z,16.90
2023-05-03T22:55:27.066Z,16.59
2023-05-03T22:57:53.816Z,16.81
2023-05-03T23:00:21.619Z,16.73
2023-05-03T23:05:15.718Z,16.79
2023-05-03T23:07:43.194Z,16.81
2023-05-03T23:10:10.176Z,16.61
2023-05-03T23:12:37.134Z,16.55
2023-05-03T23:15:04.242Z,16.50
2023-05-03T23:17:31.503Z,16.40
2023-05-03T23:19:58.273Z,16.53
2023-05-03T23:22:24.885Z,16.53
2023-05-03T23:24:51.521Z,16.28
2023-05-03T23:27:18.166Z,16.53
2023-05-03T23:29:47.183Z,16.44
2023-05-03T23:32:14.402Z,16.38
2023-05-03T23:34:41.869Z,16.30
2023-05-03T23:37:08.505Z,16.23
2023-05-03T23:39:35.263Z,16.26
2023-05-03T23:42:02.104Z,16.41
2023-05-03T23:44:38.679Z,16.27
2023-05-03T23:47:15.418Z,16.36
2023-05-03T23:49:42.023Z,16.22
2023-05-03T23:52:09.734Z,16.19
2023-05-03T23:54:36.495Z,16.17
2023-05-03T23:57:03.145Z,16.06
2023-05-03T23:59:29.852Z,16.17
